Time;durP1;ratioP1;P1;durP2;ratioP2;P2;SDS_P1;SDS_P2;PMS_P1;PMS_P2;Temp;Humidity;BMP_temperature;BMP_pressure;BME280_temperature;BME280_humidity;BME280_pressure;Samples;Min_cycle;Max_cycle;Signal;HPM_P1;HPM_P2
2022/04/15 00:00:46;;;;;;;8.65;3.45;;;;;;;11.45;78.54;97112.06;2075595;28;20229;-66
2022/04/15 00:01:48;;;;;;;5.60;3.42;;;;;;;11.38;79.30;97110.75;2076845;28;20208;-66
2022/04/15 00:02:50;;;;;;;8.48;3.75;;;;;;;11.25;79.35;97108.91;2076998;28;20244;-65
2022/04/15 00:03:52;;;;;;;11.25;3.67;;;;;;;11.33;79.32;97105.81;2080192;28;20208;-65
2022/04/15 00:04:56;;;;;;;8.88;3.67;;;;;;;11.23;79.49;97110.81;2084991;28;20205;-65
2022/04/15 00:05:58;;;;;;;9.88;4.32;;;;;;;11.30;78.92;97092.06;2079347;28;20220;-66
2022/04/15 00:07:00;;;;;;;5.82;3.50;;;;;;;11.27;79.29;97096.56;2082665;28;20734;-65
2022/04/15 00:08:05;;;;;;;7.10;3.35;;;;;;;11.09;79.56;97079.34;2082035;28;20206;-65
2022/04/15 00:09:07;;;;;;;7.75;3.20;;;;;;;11.27;79.56;97101.81;2079894;28;20198;-66
2022/04/15 00:10:09;;;;;;;8.45;3.30;;;;;;;11.25;79.52;97101.06;2079690;28;20207;-66
2022/04/15 00:11:11;;;;;;;6.68;3.25;;;;;;;11.25;79.36;97087.94;2083358;28;20192;-66
2022/04/15 00:12:17;;;;;;;7.28;3.65;;;;;;;11.27;79.45;97099.19;2087502;28;20208;-65
2022/04/15 00:13:24;;;;;;;7.68;2.95;;;;;;;11.20;79.44;97104.91;2087546;28;20207;-65
2022/04/15 00:14:26;;;;;;;7.68;3.33;;;;;;;11.27;79.49;97111.41;2084514;28;20225;-66
2022/04/15 00:15:28;;;;;;;10.57;3.53;;;;;;;11.22;79.84;97097.78;2083130;28;20236;-65
2022/04/15 00:16:29;;;;;;;8.98;3.72;;;;;;;11.19;79.62;97106.69;2080123;28;20229;-66
2022/04/15 00:17:31;;;;;;;6.05;3.25;;;;;;;11.17;79.91;97103.34;2080194;28;20587;-66
2022/04/15 00:18:33;;;;;;;4.70;3.08;;;;;;;11.23;79.65;97112.56;2086170;28;20202;-65
2022/04/15 00:19:34;;;;;;;9.52;3.72;;;;;;;11.17;79.78;97105.94;2086066;28;20204;-65
2022/04/15 00:20:36;;;;;;;8.18;3.05;;;;;;;11.13;80.10;97112.28;2087280;28;20246;-66
2022/04/15 00:21:38;;;;;;;5.57;3.20;;;;;;;11.07;80.34;97116.16;2084936;28;20700;-65
2022/04/15 00:22:39;;;;;;;6.13;3.38;;;;;;;11.13;79.75;97107.06;2079928;28;20201;-65
2022/04/15 00:23:41;;;;;;;6.15;3.45;;;;;;;10.87;79.76;97093.81;2079333;28;20202;-65
2022/04/15 00:24:43;;;;;;;9.35;3.08;;;;;;;11.00;79.87;97114.03;2080135;28;20197;-66
2022/04/15 00:25:44;;;;;;;5.65;3.70;;;;;;;11.01;80.08;97118.31;2079532;28;20225;-66
2022/04/15 00:26:46;;;;;;;11.60;4.15;;;;;;;10.94;80.39;97112.63;2084902;28;20603;-65
2022/04/15 00:27:47;;;;;;;7.97;3.88;;;;;;;10.97;80.52;97112.41;2086748;28;20203;-66
2022/04/15 00:28:52;;;;;;;17.85;3.92;;;;;;;10.96;80.64;97113.38;2075812;28;20196;-66
2022/04/15 00:29:53;;;;;;;9.23;3.53;;;;;;;11.00;80.02;97111.41;2075008;28;20644;-66
2022/04/15 00:30:54;;;;;;;6.35;3.45;;;;;;;11.02;80.13;97117.41;2081685;28;20219;-65
2022/04/15 00:31:56;;;;;;;11.85;3.58;;;;;;;10.89;79.84;97093.72;2082008;28;20206;-66
2022/04/15 00:32:58;;;;;;;5.45;3.08;;;;;;;11.02;79.69;97114.78;2083419;28;20207;-66
2022/04/15 00:34:03;;;;;;;6.60;3.42;;;;;;;10.97;79.99;97112.41;2083833;28;20207;-65
2022/04/15 00:35:05;;;;;;;10.38;3.58;;;;;;;10.94;79.81;97101.28;2085464;28;20609;-66
2022/04/15 00:36:07;;;;;;;9.15;3.47;;;;;;;10.96;80.25;97107.28;2086336;28;20227;-65
2022/04/15 00:37:08;;;;;;;6.63;3.72;;;;;;;10.99;80.27;97114.94;2086744;28;20668;-66
2022/04/15 00:38:11;;;;;;;5.15;3.70;;;;;;;10.85;80.46;97102.72;2085220;28;20192;-69
2022/04/15 00:39:12;;;;;;;7.57;3.65;;;;;;;10.92;80.82;97106.63;2085124;28;20696;-69
2022/04/15 00:40:14;;;;;;;7.47;3.70;;;;;;;10.99;80.58;97114.94;2085479;28;20243;-68
2022/04/15 00:41:16;;;;;;;5.72;3.67;;;;;;;10.94;80.75;97098.66;2086004;28;20236;-68
2022/04/15 00:42:18;;;;;;;11.25;4.45;;;;;;;11.04;80.38;97116.34;2083044;28;20248;-68
2022/04/15 00:43:19;;;;;;;7.35;3.75;;;;;;;10.99;80.55;97110.53;2085910;28;20206;-68
2022/04/15 00:44:21;;;;;;;6.10;4.07;;;;;;;10.94;80.97;97106.53;2077922;28;20196;-68
2022/04/15 00:45:23;;;;;;;12.93;4.57;;;;;;;10.80;80.90;97089.91;2075235;28;20195;-68
2022/04/15 00:46:24;;;;;;;8.68;4.55;;;;;;;11.01;80.95;97107.84;2082292;28;20545;-68
2022/04/15 00:47:43;;;;;;;8.32;3.72;;;;;;;11.04;80.90;97115.50;2079282;28;20254;-68
2022/04/15 00:48:45;;;;;;;11.82;4.90;;;;;;;10.94;81.73;97111.75;2080822;28;20203;-68
2022/04/15 00:49:46;;;;;;;8.25;4.75;;;;;;;11.00;82.17;97114.88;2081880;28;20189;-68
2022/04/15 00:50:48;;;;;;;10.07;4.15;;;;;;;10.97;82.05;97111.59;2085435;28;20212;-68
2022/04/15 00:51:51;;;;;;;8.88;4.28;;;;;;;10.82;82.11;97093.28;2083726;28;20619;-66
2022/04/15 00:52:57;;;;;;;10.80;5.10;;;;;;;10.65;82.25;97069.88;2084093;28;20213;-66
2022/04/15 00:54:01;;;;;;;8.60;5.40;;;;;;;10.95;81.94;97102.97;2079356;28;20201;-66
2022/04/15 00:55:04;;;;;;;12.57;5.18;;;;;;;10.87;82.01;97093.81;2080484;28;20204;-66
2022/04/15 00:56:08;;;;;;;11.30;5.00;;;;;;;11.06;81.89;97111.84;2084485;28;20219;-65
2022/04/15 00:57:12;;;;;;;8.18;4.50;;;;;;;11.00;81.81;97116.66;2086724;28;20203;-65
2022/04/15 00:58:16;;;;;;;10.07;4.90;;;;;;;11.03;81.91;97108.56;2086699;28;20813;-66
2022/04/15 00:59:19;;;;;;;11.27;5.20;;;;;;;11.02;81.91;97105.13;2075385;28;20298;-65
2022/04/15 01:00:20;;;;;;;7.90;4.28;;;;;;;11.01;81.87;97108.66;2074929;28;20203;-65
2022/04/15 01:01:22;;;;;;;10.05;4.93;;;;;;;10.96;81.84;97097.66;2073845;28;20196;-66
2022/04/15 01:02:32;;;;;;;10.40;4.88;;;;;;;11.05;81.97;97119.81;2074067;28;20207;-66
2022/04/15 01:03:35;;;;;;;12.60;5.20;;;;;;;11.01;81.95;97107.84;2081681;28;20858;-66
2022/04/15 01:04:40;;;;;;;10.27;4.95;;;;;;;11.04;81.66;97115.50;2081257;28;20232;-66
2022/04/15 01:05:42;;;;;;;9.07;4.88;;;;;;;11.06;81.52;97118.88;2083757;28;20222;-65
2022/04/15 01:06:46;;;;;;;7.28;4.57;;;;;;;10.97;81.58;97112.41;2082373;28;20542;-65
2022/04/15 01:07:50;;;;;;;7.68;4.15;;;;;;;10.93;81.52;97116.16;2085847;28;20200;-65
2022/04/15 01:08:53;;;;;;;10.30;4.40;;;;;;;10.85;81.20;97110.56;2085400;28;20196;-65
2022/04/15 01:09:54;;;;;;;7.65;4.55;;;;;;;10.81;81.12;97104.66;2086371;28;20196;-65
2022/04/15 01:10:58;;;;;;;7.40;4.32;;;;;;;10.78;81.30;97107.50;2082195;28;20435;-66
2022/04/15 01:12:05;;;;;;;12.15;4.90;;;;;;;10.81;80.96;97114.31;2084838;28;20252;-65
2022/04/15 01:13:07;;;;;;;8.98;3.97;;;;;;;10.85;80.88;97113.19;2084563;28;20567;-65
2022/04/15 01:14:25;;;;;;;10.82;4.50;;;;;;;10.61;81.42;97097.19;2081300;28;20204;-65
2022/04/15 01:15:27;;;;;;;13.23;4.68;;;;;;;10.60;81.57;97103.38;2078590;28;20203;-65
2022/04/15 01:16:30;;;;;;;6.18;3.95;;;;;;;10.58;81.63;97111.31;2079718;28;20205;-66
2022/04/15 01:17:33;;;;;;;13.77;4.10;;;;;;;10.51;82.02;97096.91;2083147;28;20234;-65
2022/04/15 01:18:35;;;;;;;8.57;4.97;;;;;;;10.66;81.92;97118.69;2083039;28;20196;-65
2022/04/15 01:19:37;;;;;;;8.80;3.90;;;;;;;10.68;81.83;97115.06;2084323;28;20717;-66
2022/04/15 01:20:41;;;;;;;13.68;4.43;;;;;;;10.66;81.81;97114.31;2084138;28;20216;-66
2022/04/15 01:21:44;;;;;;;8.43;4.60;;;;;;;10.61;82.02;97110.31;2085690;28;20688;-65
2022/04/15 01:22:48;;;;;;;11.70;5.40;;;;;;;10.60;81.92;97113.84;2084059;28;20198;-65
2022/04/15 01:23:50;;;;;;;10.65;4.60;;;;;;;10.67;82.04;97104.69;2084609;28;20195;-65
2022/04/15 01:24:51;;;;;;;9.45;4.75;;;;;;;10.55;82.35;97105.44;2084393;28;20208;-65
2022/04/15 01:25:53;;;;;;;7.43;4.57;;;;;;;10.59;82.10;97107.75;2083340;28;20224;-66
2022/04/15 01:26:55;;;;;;;8.23;4.00;;;;;;;10.60;81.98;97114.66;2084536;28;20196;-66
2022/04/15 01:27:57;;;;;;;8.05;4.35;;;;;;;10.62;81.81;97119.81;2085850;28;20662;-65
2022/04/15 01:28:58;;;;;;;10.20;4.25;;;;;;;10.60;81.50;97113.84;2085893;28;20209;-65
2022/04/15 01:30:00;;;;;;;8.63;4.63;;;;;;;10.66;81.29;97118.69;2082454;28;20205;-65
2022/04/15 01:31:01;;;;;;;10.10;5.28;;;;;;;10.53;81.41;97112.53;2076360;28;20217;-65
2022/04/15 01:32:05;;;;;;;11.27;5.00;;;;;;;10.55;81.82;97116.75;2076252;28;20735;-65
2022/04/15 01:33:06;;;;;;;7.22;4.13;;;;;;;10.48;82.06;97121.50;2083649;28;20198;-66
2022/04/15 01:34:12;;;;;;;7.43;4.25;;;;;;;10.55;81.97;97118.53;2084405;28;20319;-65
2022/04/15 01:35:16;;;;;;;17.92;5.25;;;;;;;10.53;82.11;97131.72;2082276;28;20689;-65
2022/04/15 01:36:18;;;;;;;6.50;4.10;;;;;;;10.49;82.41;97131.06;2085053;28;20199;-65
2022/04/15 01:37:22;;;;;;;7.60;4.10;;;;;;;10.51;82.28;97125.72;2084364;28;20214;-65
2022/04/15 01:38:24;;;;;;;7.32;4.60;;;;;;;10.48;82.39;97126.72;2078704;28;20667;-66
2022/04/15 01:39:27;;;;;;;17.13;5.13;;;;;;;10.39;82.43;97127.31;2079558;28;20703;-65
2022/04/15 01:40:29;;;;;;;10.75;4.97;;;;;;;10.34;82.66;97121.47;2084461;28;20221;-65
2022/04/15 01:41:30;;;;;;;12.75;4.55;;;;;;;10.26;82.90;97119.28;2084009;28;20204;-65
2022/04/15 01:42:32;;;;;;;5.95;4.13;;;;;;;10.26;83.13;97121.91;2083767;28;20580;-65
2022/04/15 01:43:34;;;;;;;6.78;4.47;;;;;;;10.24;82.92;97126.41;2083875;28;20201;-65
2022/04/15 01:44:36;;;;;;;7.57;4.60;;;;;;;10.32;82.91;97125.13;2084736;28;20196;-65
2022/04/15 01:45:38;;;;;;;8.35;4.10;;;;;;;10.34;82.79;97116.25;2085213;28;20220;-65
2022/04/15 01:46:40;;;;;;;8.98;4.00;;;;;;;10.30;82.27;97125.22;2084449;28;20618;-65
2022/04/15 01:47:44;;;;;;;9.73;5.38;;;;;;;10.32;82.62;97131.22;2086161;28;20224;-66
2022/04/15 01:48:46;;;;;;;7.95;4.45;;;;;;;10.31;82.85;97126.06;2083400;28;20577;-65
2022/04/15 01:49:47;;;;;;;10.38;5.22;;;;;;;10.21;82.68;97102.16;2085576;28;20663;-65
2022/04/15 01:50:48;;;;;;;8.93;4.82;;;;;;;10.31;82.81;97119.06;2084504;28;20697;-65
2022/04/15 01:51:50;;;;;;;9.43;4.72;;;;;;;10.35;82.53;97125.81;2077781;28;20207;-66
2022/04/15 01:52:51;;;;;;;11.82;4.95;;;;;;;10.28;83.00;97116.59;2071353;28;20198;-65
2022/04/15 01:53:55;;;;;;;10.98;4.95;;;;;;;10.40;82.83;97128.97;2078459;28;20716;-65
2022/04/15 01:54:56;;;;;;;7.68;5.00;;;;;;;10.31;82.68;97116.44;2086741;28;20213;-65
2022/04/15 01:55:58;;;;;;;13.25;4.72;;;;;;;10.40;82.36;97123.72;2084420;28;20223;-65
2022/04/15 01:57:00;;;;;;;10.77;4.68;;;;;;;10.06;83.03;97096.91;2082744;28;20647;-66
2022/04/15 01:58:02;;;;;;;6.53;3.90;;;;;;;10.15;82.96;97126.09;2081256;28;20696;-65
2022/04/15 01:59:04;;;;;;;11.52;4.20;;;;;;;10.16;82.46;97128.63;2081219;28;20643;-65
2022/04/15 02:00:12;;;;;;;8.30;3.85;;;;;;;10.15;82.70;97136.56;2080710;28;20219;-65
2022/04/15 02:01:27;;;;;;;6.68;4.20;;;;;;;10.18;82.84;97134.59;2061330;28;20721;-65
2022/04/15 02:02:29;;;;;;;8.52;4.10;;;;;;;10.20;82.75;97124.06;2064034;28;20202;-65
2022/04/15 02:03:31;;;;;;;4.70;3.65;;;;;;;10.18;82.76;97124.16;2070110;28;20216;-66
2022/04/15 02:04:33;;;;;;;7.25;4.30;;;;;;;10.35;82.42;97135.41;2069947;28;20234;-65
2022/04/15 02:05:34;;;;;;;18.85;5.07;;;;;;;10.30;82.64;97133.06;2069112;28;20587;-65
2022/04/15 02:06:36;;;;;;;8.60;4.95;;;;;;;10.27;82.97;97125.34;2070241;28;20893;-65
2022/04/15 02:07:37;;;;;;;8.02;4.75;;;;;;;10.24;83.29;97130.78;2070191;28;20199;-65
2022/04/15 02:08:39;;;;;;;8.88;5.65;;;;;;;10.19;83.53;97130.22;2070462;28;20194;-65
2022/04/15 02:09:40;;;;;;;12.10;4.75;;;;;;;10.17;83.64;97134.69;2068258;28;20199;-65
2022/04/15 02:10:42;;;;;;;6.80;4.10;;;;;;;10.20;83.05;97126.69;2068489;28;20225;-66
2022/04/15 02:11:44;;;;;;;11.18;5.18;;;;;;;10.20;83.57;97137.16;2069603;28;20548;-65
2022/04/15 02:12:45;;;;;;;7.78;3.75;;;;;;;10.21;83.20;97128.34;2070375;28;20197;-65
2022/04/15 02:13:47;;;;;;;9.00;5.05;;;;;;;10.23;82.99;97129.09;2070287;28;20417;-66
2022/04/15 02:14:48;;;;;;;9.52;5.05;;;;;;;10.12;83.23;97115.81;2069863;28;20205;-66
2022/04/15 02:15:50;;;;;;;9.30;4.90;;;;;;;10.13;83.32;97125.34;2067717;28;20611;-65
2022/04/15 02:16:53;;;;;;;12.75;4.47;;;;;;;10.03;83.63;97117.19;2068934;28;20380;-65
2022/04/15 02:17:55;;;;;;;9.60;4.90;;;;;;;10.23;83.28;97132.56;2068739;28;20679;-66
2022/04/15 02:18:56;;;;;;;15.95;3.83;;;;;;;10.37;81.93;97139.66;2070006;28;20733;-65
2022/04/15 02:19:58;;;;;;;8.68;3.88;;;;;;;10.36;81.45;97135.31;2070551;28;20206;-65
2022/04/15 02:21:00;;;;;;;4.85;3.42;;;;;;;10.36;80.65;97135.31;2068889;28;20281;-65
2022/04/15 02:22:01;;;;;;;6.05;3.88;;;;;;;10.24;80.97;97134.25;2070182;28;20205;-65
2022/04/15 02:23:03;;;;;;;9.90;4.00;;;;;;;10.09;80.94;97114.19;2070034;28;20205;-65
2022/04/15 02:24:06;;;;;;;8.05;3.90;;;;;;;10.07;81.57;97119.56;2062136;28;20205;-65
2022/04/15 02:25:08;;;;;;;8.05;4.65;;;;;;;10.10;81.85;97137.66;2061743;28;20198;-66
2022/04/15 02:26:09;;;;;;;6.95;4.28;;;;;;;10.00;82.91;97139.16;2069513;28;20820;-65
2022/04/15 02:27:11;;;;;;;10.48;4.20;;;;;;;10.05;82.78;97138.88;2070112;28;20576;-65
2022/04/15 02:28:12;;;;;;;9.48;4.40;;;;;;;10.09;82.96;97135.13;2068675;28;20214;-65
2022/04/15 02:29:14;;;;;;;17.38;5.25;;;;;;;10.10;83.48;97140.28;2069979;28;20195;-65
2022/04/15 02:30:15;;;;;;;7.78;4.55;;;;;;;10.15;83.26;97144.41;2066239;28;20217;-65
2022/04/15 02:31:17;;;;;;;12.02;4.78;;;;;;;10.15;83.47;97136.56;2060608;28;20209;-66
2022/04/15 02:32:19;;;;;;;5.68;4.43;;;;;;;10.10;83.49;97137.66;2061390;28;20655;-65
2022/04/15 02:33:20;;;;;;;8.95;4.63;;;;;;;10.06;83.66;97135.34;2073255;28;20205;-66
2022/04/15 02:34:22;;;;;;;13.57;4.25;;;;;;;10.14;83.61;97143.56;2076727;28;20228;-65
2022/04/15 02:35:23;;;;;;;10.10;4.55;;;;;;;10.16;83.37;97133.03;2070320;28;20203;-65
2022/04/15 02:36:24;;;;;;;11.23;4.28;;;;;;;10.12;83.81;97140.22;2070062;28;20194;-65
2022/04/15 02:37:26;;;;;;;10.30;4.85;;;;;;;9.99;83.88;97123.53;2075882;28;20204;-65
2022/04/15 02:38:28;;;;;;;8.18;4.63;;;;;;;10.16;83.68;97133.84;2074668;28;20208;-65
2022/04/15 02:39:29;;;;;;;9.75;3.88;;;;;;;10.18;83.78;97141.63;2076276;28;20209;-65
2022/04/15 02:40:31;;;;;;;11.25;5.38;;;;;;;10.17;84.05;97134.69;2076473;28;20228;-66
2022/04/15 02:41:33;;;;;;;5.97;4.30;;;;;;;10.20;84.01;97142.38;2078859;28;20192;-65
2022/04/15 02:42:35;;;;;;;14.02;4.80;;;;;;;10.23;83.76;97143.03;2079027;28;20197;-65
2022/04/15 02:43:38;;;;;;;12.23;4.93;;;;;;;10.23;83.62;97129.09;2076731;28;20254;-65
2022/04/15 02:44:39;;;;;;;10.38;5.35;;;;;;;10.18;84.16;97139.00;2076768;28;20197;-65
2022/04/15 02:45:42;;;;;;;9.15;5.07;;;;;;;10.04;84.18;97114.47;2075085;28;20225;-65
2022/04/15 02:46:43;;;;;;;6.93;4.53;;;;;;;10.14;84.44;97137.50;2076502;28;20193;-65
2022/04/15 02:47:45;;;;;;;8.85;4.75;;;;;;;10.14;84.51;97140.97;2078158;28;20205;-65
2022/04/15 02:48:46;;;;;;;8.38;5.45;;;;;;;10.15;84.26;97141.78;2075830;28;20213;-65
2022/04/15 02:49:48;;;;;;;13.73;5.97;;;;;;;10.11;84.32;97138.50;2076760;28;20320;-65
2022/04/15 02:50:50;;;;;;;9.85;4.82;;;;;;;10.17;84.41;97142.53;2077545;28;20225;-65
2022/04/15 02:51:51;;;;;;;10.02;4.88;;;;;;;10.21;84.14;97142.28;2074901;28;20245;-65
2022/04/15 02:52:53;;;;;;;8.73;4.93;;;;;;;10.20;84.13;97151.06;2076818;28;20205;-65
2022/04/15 02:53:54;;;;;;;10.57;5.35;;;;;;;10.18;84.28;97150.31;2064680;28;20201;-65
2022/04/15 02:54:55;;;;;;;9.65;4.60;;;;;;;10.15;84.13;97147.88;2079461;28;20565;-65
2022/04/15 02:55:57;;;;;;;11.30;5.80;;;;;;;10.17;84.16;97147.78;2074487;28;20229;-65
2022/04/15 02:56:59;;;;;;;16.02;5.53;;;;;;;10.03;84.21;97123.25;2072385;28;20201;-66
2022/04/15 02:58:00;;;;;;;9.32;5.35;;;;;;;10.12;84.45;97142.00;2070645;28;20582;-66
2022/04/15 02:59:02;;;;;;;11.52;5.57;;;;;;;10.04;84.27;97138.03;2077384;28;20479;-65
2022/04/15 03:00:04;;;;;;;9.30;5.47;;;;;;;10.09;84.41;97143.00;2078432;28;20636;-65
2022/04/15 03:01:06;;;;;;;15.00;6.63;;;;;;;9.95;84.90;97128.09;2077112;28;20225;-65
2022/04/15 03:02:07;;;;;;;7.43;4.00;;;;;;;10.06;84.02;97135.34;2078281;28;20202;-65
2022/04/15 03:03:11;;;;;;;7.97;3.80;;;;;;;9.95;82.08;97129.88;2078433;28;20402;-65
2022/04/15 03:04:12;;;;;;;9.02;4.70;;;;;;;9.88;82.30;97138.09;2082256;28;20244;-65
2022/04/15 03:05:14;;;;;;;6.93;4.28;;;;;;;9.77;82.91;97142.25;2084577;28;20672;-65
2022/04/15 03:06:16;;;;;;;8.95;4.28;;;;;;;9.71;82.83;97127.72;2086984;28;20241;-65
2022/04/15 03:07:17;;;;;;;7.55;4.72;;;;;;;9.82;82.74;97133.22;2085201;28;20200;-65
2022/04/15 03:08:19;;;;;;;6.57;4.10;;;;;;;9.78;83.38;97147.41;2085039;28;20204;-65
2022/04/15 03:09:21;;;;;;;10.23;5.45;;;;;;;9.73;83.88;97144.19;2085272;28;20204;-65
2022/04/15 03:10:23;;;;;;;8.00;5.05;;;;;;;9.68;84.15;97139.22;2084018;28;20208;-65
2022/04/15 03:11:24;;;;;;;8.95;5.10;;;;;;;9.59;84.05;97125.81;2085786;28;20196;-68
2022/04/15 03:12:26;;;;;;;5.80;4.43;;;;;;;9.70;83.89;97139.97;2085150;28;20203;-67
2022/04/15 03:13:28;;;;;;;9.55;4.75;;;;;;;9.69;83.99;97130.44;2085483;28;20208;-67
2022/04/15 03:14:35;;;;;;;7.70;4.75;;;;;;;9.73;84.01;97133.72;2085782;28;20196;-68
2022/04/15 03:15:37;;;;;;;8.15;5.80;;;;;;;9.74;83.52;97142.41;2087600;28;20229;-67
2022/04/15 03:16:38;;;;;;;9.38;5.03;;;;;;;9.74;83.92;97131.94;2084901;28;20205;-67
2022/04/15 03:17:40;;;;;;;8.55;4.95;;;;;;;9.69;84.07;97135.66;2086870;28;20224;-65
2022/04/15 03:18:42;;;;;;;6.20;4.78;;;;;;;9.70;84.20;97129.50;2086300;28;20196;-66
2022/04/15 03:19:43;;;;;;;10.23;4.85;;;;;;;9.63;83.96;97133.41;2084993;28;20200;-66
2022/04/15 03:20:45;;;;;;;9.23;4.35;;;;;;;9.65;83.91;97136.78;2085650;28;20221;-65
2022/04/15 03:21:47;;;;;;;8.25;5.05;;;;;;;9.57;84.39;97136.38;2087437;28;20197;-65
2022/04/15 03:22:48;;;;;;;13.27;4.60;;;;;;;9.59;83.61;97131.88;2086664;28;20204;-66
2022/04/15 03:23:50;;;;;;;5.93;4.10;;;;;;;9.56;84.03;97137.28;2084347;28;20259;-66
2022/04/15 03:24:51;;;;;;;12.23;4.78;;;;;;;9.39;84.09;97124.31;2086058;28;20208;-65
2022/04/15 03:25:53;;;;;;;8.13;4.43;;;;;;;9.44;84.23;97128.34;2079816;28;20224;-66
2022/04/15 03:26:54;;;;;;;6.78;3.90;;;;;;;9.48;84.07;97137.69;2080507;28;20193;-65
2022/04/15 03:27:56;;;;;;;8.23;4.57;;;;;;;9.43;84.52;97136.31;2085858;28;20197;-66
2022/04/15 03:28:57;;;;;;;6.75;4.13;;;;;;;9.46;84.13;97146.56;2086134;28;20546;-66
2022/04/15 03:29:59;;;;;;;9.93;5.45;;;;;;;9.36;84.07;97116.66;2086285;28;20198;-65
2022/04/15 03:31:01;;;;;;;8.18;5.00;;;;;;;9.44;84.17;97137.97;2084014;28;20231;-66
2022/04/15 03:32:02;;;;;;;7.00;4.60;;;;;;;9.50;84.14;97146.31;2087431;28;20200;-66
2022/04/15 03:33:04;;;;;;;6.10;4.13;;;;;;;9.49;84.13;97138.56;2087691;28;20215;-66
2022/04/15 03:34:07;;;;;;;7.13;4.93;;;;;;;9.50;83.83;97146.31;2085191;28;20189;-66
2022/04/15 03:35:08;;;;;;;9.25;4.85;;;;;;;9.48;83.81;97148.16;2084771;28;20201;-66
2022/04/15 03:36:10;;;;;;;7.78;4.88;;;;;;;9.37;83.75;97121.78;2083808;28;20675;-66
2022/04/15 03:37:11;;;;;;;14.65;5.65;;;;;;;9.45;84.79;97145.75;2085735;28;20198;-66
2022/04/15 03:38:13;;;;;;;12.05;5.88;;;;;;;9.30;84.78;97123.06;2086322;28;20201;-66
2022/04/15 03:39:14;;;;;;;12.55;5.22;;;;;;;9.14;85.05;97102.16;2086134;28;20222;-66
2022/04/15 03:40:16;;;;;;;10.40;5.30;;;;;;;9.28;85.21;97148.44;2086130;28;20216;-66
2022/04/15 03:41:18;;;;;;;13.05;4.85;;;;;;;9.20;84.90;97127.94;2086644;28;20219;-66
2022/04/15 03:42:19;;;;;;;7.60;5.18;;;;;;;9.17;84.98;97140.34;2084984;28;20197;-65
2022/04/15 03:43:21;;;;;;;16.63;4.57;;;;;;;9.10;84.68;97132.81;2083446;28;20201;-66
2022/04/15 03:44:22;;;;;;;7.10;4.85;;;;;;;9.12;84.93;97135.38;2084295;28;20591;-66
2022/04/15 03:45:24;;;;;;;10.70;5.40;;;;;;;9.18;84.63;97145.47;2087065;28;20211;-66
2022/04/15 03:46:26;;;;;;;10.27;4.65;;;;;;;9.15;84.59;97143.03;2088547;28;20200;-66
2022/04/15 03:47:27;;;;;;;10.98;4.80;;;;;;;9.11;84.87;97141.50;2085254;28;20548;-66
2022/04/15 03:48:29;;;;;;;10.63;4.63;;;;;;;9.14;84.68;97141.34;2084338;28;20231;-66
2022/04/15 03:49:31;;;;;;;8.00;4.90;;;;;;;9.14;84.77;97146.56;2085791;28;20209;-65
2022/04/15 03:50:33;;;;;;;8.48;4.97;;;;;;;9.03;85.29;97136.69;2087132;28;20228;-65
2022/04/15 03:51:35;;;;;;;7.85;4.95;;;;;;;9.03;85.26;97131.47;2085129;28;20199;-66
2022/04/15 03:52:42;;;;;;;14.05;4.20;;;;;;;9.10;85.08;97142.44;2072059;28;20202;-66
2022/04/15 03:53:46;;;;;;;7.18;3.70;;;;;;;9.04;85.40;97135.78;2078039;28;20197;-66
2022/04/15 03:54:47;;;;;;;10.00;5.32;;;;;;;8.97;85.36;97125.75;2086495;28;20686;-65
2022/04/15 03:55:51;;;;;;;6.45;4.60;;;;;;;9.06;85.79;97139.16;2085366;28;20646;-65
2022/04/15 03:56:52;;;;;;;10.80;5.03;;;;;;;9.01;85.36;97124.66;2085953;28;20200;-66
2022/04/15 03:57:54;;;;;;;6.75;4.90;;;;;;;9.10;85.38;97147.66;2085140;28;20203;-66
2022/04/15 03:58:55;;;;;;;10.95;6.13;;;;;;;9.08;85.37;97131.22;2084204;28;20652;-65
2022/04/15 03:59:57;;;;;;;13.85;5.45;;;;;;;9.09;85.54;97143.34;2084576;28;20196;-66
2022/04/15 04:00:59;;;;;;;8.55;5.30;;;;;;;9.05;85.02;97139.22;2083294;28;20220;-66
2022/04/15 04:02:01;;;;;;;15.05;5.00;;;;;;;9.07;85.86;97139.97;2083324;28;20205;-65
2022/04/15 04:03:03;;;;;;;6.82;4.93;;;;;;;9.04;85.81;97145.41;2085291;28;20196;-66
2022/04/15 04:04:05;;;;;;;8.80;4.65;;;;;;;9.09;85.70;97145.97;2075091;28;20630;-65
2022/04/15 04:05:08;;;;;;;7.38;4.75;;;;;;;9.17;85.21;97142.94;2075961;28;20204;-66
2022/04/15 04:06:09;;;;;;;10.63;4.82;;;;;;;9.20;85.20;97145.41;2079443;28;21143;-66
2022/04/15 04:07:11;;;;;;;8.32;5.07;;;;;;;9.11;85.88;97141.50;2084381;28;20197;-65
2022/04/15 04:08:12;;;;;;;7.63;4.90;;;;;;;9.11;85.92;97149.34;2085580;28;20204;-66
2022/04/15 04:09:14;;;;;;;9.73;5.07;;;;;;;8.93;85.97;97126.84;2083302;28;20190;-65
2022/04/15 04:10:16;;;;;;;14.75;5.63;;;;;;;8.99;86.05;97147.41;2084125;28;20203;-66
2022/04/15 04:11:19;;;;;;;11.25;4.60;;;;;;;8.97;85.95;97144.88;2086570;28;20663;-66
2022/04/15 04:12:21;;;;;;;6.85;4.63;;;;;;;8.87;86.15;97131.44;2084620;28;20207;-66
2022/04/15 04:13:22;;;;;;;8.80;5.50;;;;;;;8.91;86.24;97146.03;2085176;28;20201;-65
2022/04/15 04:14:24;;;;;;;6.35;4.85;;;;;;;8.86;86.31;97142.84;2085980;28;20546;-66
2022/04/15 04:15:26;;;;;;;7.82;5.70;;;;;;;8.91;86.10;97146.03;2085283;28;20197;-65
2022/04/15 04:16:27;;;;;;;7.80;5.47;;;;;;;8.95;85.95;97148.50;2083847;28;20551;-66
2022/04/15 04:17:29;;;;;;;11.68;5.50;;;;;;;8.92;86.05;97152.13;2082961;28;20193;-65
2022/04/15 04:18:30;;;;;;;13.95;6.03;;;;;;;8.95;85.93;97153.72;2085813;28;20215;-65
2022/04/15 04:19:32;;;;;;;11.43;5.47;;;;;;;8.89;85.92;97142.66;2085606;28;20227;-65
2022/04/15 04:20:33;;;;;;;6.50;4.25;;;;;;;8.93;86.28;97153.78;2081998;28;20312;-65
2022/04/15 04:21:36;;;;;;;10.05;5.75;;;;;;;8.93;86.18;97153.78;2082914;28;20212;-66
2022/04/15 04:22:39;;;;;;;10.65;5.50;;;;;;;8.96;86.28;97148.41;2084621;28;20208;-66
2022/04/15 04:23:41;;;;;;;9.80;5.13;;;;;;;8.83;86.56;97144.75;2084114;28;20200;-66
2022/04/15 04:24:43;;;;;;;13.82;5.32;;;;;;;8.99;86.49;97157.84;2082507;28;20252;-66
2022/04/15 04:25:44;;;;;;;11.13;5.55;;;;;;;8.93;86.12;97148.56;2085778;28;20698;-66
2022/04/15 04:26:45;;;;;;;7.22;4.97;;;;;;;8.86;85.87;97139.34;2083419;28;20547;-65
2022/04/15 04:27:48;;;;;;;8.20;5.40;;;;;;;8.95;86.36;97151.09;2083359;28;20204;-66
2022/04/15 04:28:49;;;;;;;8.20;4.75;;;;;;;8.96;86.50;97158.88;2083971;28;20193;-66
2022/04/15 04:29:51;;;;;;;15.52;5.43;;;;;;;8.98;86.30;97158.78;2077798;28;20193;-65
2022/04/15 04:30:53;;;;;;;10.48;5.72;;;;;;;8.93;86.33;97159.00;2078439;28;20639;-66
2022/04/15 04:31:54;;;;;;;9.38;5.22;;;;;;;8.90;85.96;97160.03;2079990;28;20193;-65
2022/04/15 04:32:59;;;;;;;8.73;5.22;;;;;;;8.81;86.43;97149.22;2080195;28;20793;-66
2022/04/15 04:34:01;;;;;;;6.80;4.43;;;;;;;8.88;85.38;97159.28;2075224;28;20296;-65
2022/04/15 04:35:05;;;;;;;7.18;4.82;;;;;;;8.82;86.44;97164.81;2075666;28;20394;-65
2022/04/15 04:36:07;;;;;;;15.27;6.40;;;;;;;8.86;86.66;97162.88;2084145;28;20228;-65
2022/04/15 04:37:09;;;;;;;12.93;4.90;;;;;;;8.84;86.55;97162.09;2079656;28;20201;-66
2022/04/15 04:38:11;;;;;;;13.07;5.70;;;;;;;8.85;86.40;97159.41;2079577;28;20268;-66
2022/04/15 04:39:12;;;;;;;8.13;5.22;;;;;;;8.84;86.38;97159.50;2087365;28;20203;-65
2022/04/15 04:40:14;;;;;;;17.08;6.07;;;;;;;8.87;86.65;97169.78;2083236;28;20198;-65
2022/04/15 04:41:16;;;;;;;7.95;5.28;;;;;;;8.91;86.48;97168.69;2083104;28;20201;-66
2022/04/15 04:42:19;;;;;;;11.80;5.90;;;;;;;8.79;86.51;97156.31;2086036;28;20639;-65
2022/04/15 04:43:22;;;;;;;10.48;5.53;;;;;;;8.83;86.65;97169.09;2086267;28;20204;-66
2022/04/15 04:44:24;;;;;;;11.75;6.07;;;;;;;8.87;86.83;97181.06;2078717;28;20236;-66
2022/04/15 04:45:25;;;;;;;6.72;5.22;;;;;;;8.85;86.93;97180.31;2078501;28;20202;-65
2022/04/15 04:46:27;;;;;;;9.90;5.05;;;;;;;8.93;86.86;97177.31;2086038;28;20197;-66
2022/04/15 04:47:29;;;;;;;13.68;5.57;;;;;;;8.88;87.14;97161.03;2083094;28;20201;-66
2022/04/15 04:48:32;;;;;;;9.88;5.85;;;;;;;8.96;86.42;97177.16;2082766;28;20235;-66
2022/04/15 04:49:34;;;;;;;8.90;5.20;;;;;;;8.95;86.45;97175.44;2085733;28;20196;-66
2022/04/15 04:50:36;;;;;;;13.30;6.00;;;;;;;8.89;86.93;97173.16;2084815;28;20274;-66
2022/04/15 04:51:38;;;;;;;11.00;4.82;;;;;;;8.94;86.63;97176.38;2076152;28;20193;-66
2022/04/15 04:52:40;;;;;;;10.50;5.53;;;;;;;8.91;86.89;97179.16;2076387;28;20194;-65
2022/04/15 04:53:41;;;;;;;11.25;5.50;;;;;;;8.93;87.07;97185.13;2085519;28;20200;-66